createdAt,value
2018-05-02T00:31:32.125Z,5.10
2018-05-02T02:21:17.742Z,4.30
2018-05-02T02:56:10.121Z,4.00
2018-05-02T04:54:27.077Z,4.20
2018-05-02T06:19:10.937Z,8.50
2018-05-02T09:23:30.249Z,14.60
2018-05-02T10:35:44.336Z,17.10
2018-05-02T11:18:05.541Z,18.10
2018-05-02T12:22:52.592Z,20.10
2018-05-02T12:37:50.038Z,20.50
2018-05-02T13:10:52.085Z,20.70
2018-05-02T13:13:19.621Z,20.60
2018-05-02T13:15:47.189Z,20.70
2018-05-02T13:18:14.716Z,20.90
2018-05-02T13:20:42.272Z,20.90
2018-05-02T13:23:09.801Z,20.80
2018-05-02T13:25:38.125Z,20.70
2018-05-02T13:28:05.649Z,20.60
2018-05-02T13:30:33.203Z,20.70
2018-05-02T13:33:01.594Z,20.70
2018-05-02T13:35:29.857Z,20.70
2018-05-02T13:37:58.148Z,20.70
2018-05-02T13:40:25.701Z,20.70
2018-05-02T13:42:54.009Z,20.70
2018-05-02T13:45:21.563Z,20.70
2018-05-02T13:47:49.097Z,20.80
2018-05-02T13:50:17.421Z,20.60
2018-05-02T13:52:44.953Z,20.50
2018-05-02T13:55:12.512Z,20.50
2018-05-02T13:57:40.044Z,20.50
2018-05-02T14:00:07.566Z,20.60
2018-05-02T14:02:35.184Z,20.50
2018-05-02T14:05:02.715Z,20.50
2018-05-02T14:07:30.276Z,20.50
2018-05-02T14:09:57.822Z,20.50
2018-05-02T14:12:25.376Z,20.30
2018-05-02T14:14:52.909Z,20.20
2018-05-02T14:17:20.457Z,20.10
2018-05-02T14:19:47.984Z,20.20
2018-05-02T14:22:16.301Z,20.30
2018-05-02T14:24:43.849Z,20.20
2018-05-02T14:27:12.256Z,20.30
2018-05-02T14:29:39.781Z,20.20
2018-05-02T14:32:07.352Z,20.30
2018-05-02T14:34:34.898Z,20.30
2018-05-02T14:37:03.225Z,20.40
2018-05-02T14:39:30.768Z,20.30
2018-05-02T14:41:58.321Z,20.40
2018-05-02T14:44:25.844Z,20.40
2018-05-02T14:46:54.173Z,20.60
2018-05-02T14:49:21.702Z,20.50
2018-05-02T14:51:49.253Z,20.60
2018-05-02T14:54:17.542Z,20.70
2018-05-02T14:56:45.096Z,20.70
2018-05-02T14:59:12.626Z,20.90
2018-05-02T15:01:40.210Z,20.80
2018-05-02T15:04:08.506Z,20.70
2018-05-02T15:06:36.027Z,20.70
2018-05-02T15:09:03.571Z,20.70
2018-05-02T15:11:31.093Z,20.60
2018-05-02T15:13:58.658Z,20.30
2018-05-02T15:16:26.185Z,20.10
2018-05-02T15:18:54.505Z,20.20
2018-05-02T15:21:22.035Z,20.20
2018-05-02T15:23:49.596Z,20.20
2018-05-02T15:26:17.115Z,20.20
2018-05-02T15:28:44.671Z,20.20
2018-05-02T15:31:12.216Z,20.30
2018-05-02T15:33:39.777Z,20.30
2018-05-02T15:36:07.302Z,20.20
2018-05-02T15:38:34.861Z,20.20
2018-05-02T15:41:03.338Z,20.10
2018-05-02T15:43:30.909Z,20.20
2018-05-02T15:45:58.436Z,20.30
2018-05-02T15:48:26.739Z,20.40
2018-05-02T15:50:54.313Z,20.40
2018-05-02T15:53:21.876Z,20.40
2018-05-02T15:55:49.449Z,20.30
2018-05-02T15:58:17.053Z,20.30
2018-05-02T16:00:44.563Z,20.30
2018-05-02T16:03:12.101Z,20.30
2018-05-02T16:05:39.656Z,20.20
2018-05-02T16:08:07.944Z,20.10
2018-05-02T16:10:35.496Z,20.10
2018-05-02T16:13:03.052Z,20.10
2018-05-02T16:15:30.610Z,20.00
2018-05-02T16:17:58.155Z,19.90
2018-05-02T16:20:25.704Z,19.90
2018-05-02T16:22:53.229Z,19.90
2018-05-02T16:25:20.794Z,19.80
2018-05-02T16:27:48.361Z,19.70
2018-05-02T16:30:15.899Z,19.60
2018-05-02T16:32:43.418Z,19.50
2018-05-02T16:35:11.729Z,19.40
2018-05-02T16:37:39.249Z,19.40
2018-05-02T16:40:06.816Z,19.30
2018-05-02T16:42:34.336Z,19.30
2018-05-02T16:45:01.868Z,19.30
2018-05-02T16:47:29.427Z,19.20
2018-05-02T16:49:56.948Z,19.20
2018-05-02T16:52:24.496Z,19.20
2018-05-02T16:54:52.026Z,19.20
2018-05-02T16:57:19.584Z,19.20
2018-05-02T16:59:47.106Z,19.10
2018-05-02T17:02:15.414Z,19.00
2018-05-02T17:04:43.020Z,19.00
2018-05-02T17:07:10.501Z,19.00
2018-05-02T17:09:38.796Z,19.00
2018-05-02T17:12:06.353Z,18.90
2018-05-02T17:14:33.885Z,18.90
2018-05-02T17:17:01.441Z,18.90
2018-05-02T17:19:28.973Z,18.90
2018-05-02T17:21:56.584Z,18.80
2018-05-02T17:24:24.069Z,18.70
2018-05-02T17:26:51.636Z,18.70
2018-05-02T17:29:19.165Z,18.70
2018-05-02T17:31:46.721Z,18.70
2018-05-02T17:34:15.001Z,18.60
2018-05-02T17:36:43.702Z,18.60
2018-05-02T17:39:11.281Z,18.50
2018-05-02T17:41:38.856Z,18.50
2018-05-02T17:44:06.376Z,18.40
2018-05-02T17:46:33.992Z,18.40
2018-05-02T17:49:02.248Z,18.20
2018-05-02T17:51:29.769Z,18.20
2018-05-02T17:53:57.317Z,18.10
2018-05-02T17:56:25.613Z,18.00
2018-05-02T17:58:53.160Z,17.90
2018-05-02T18:01:21.448Z,17.90
2018-05-02T18:03:49.828Z,17.80
2018-05-02T18:06:17.313Z,17.70
2018-05-02T18:08:44.865Z,17.70
2018-05-02T18:11:12.385Z,17.70
2018-05-02T18:13:39.932Z,17.60
2018-05-02T18:16:07.503Z,17.50
2018-05-02T18:18:35.791Z,17.40
2018-05-02T18:21:03.312Z,17.30
2018-05-02T18:23:30.856Z,17.30
2018-05-02T18:25:58.381Z,17.20
2018-05-02T18:28:26.701Z,17.00
2018-05-02T18:30:54.509Z,16.90
2018-05-02T18:33:22.835Z,16.90
2018-05-02T18:35:50.374Z,16.80
2018-05-02T18:38:17.952Z,16.80
2018-05-02T18:40:45.740Z,16.80
2018-05-02T18:43:13.410Z,16.70
2018-05-02T18:45:41.006Z,16.60
2018-05-02T18:48:08.700Z,16.60
2018-05-02T18:50:36.279Z,16.60
2018-05-02T18:53:04.368Z,16.60
2018-05-02T18:55:31.945Z,16.60
2018-05-02T18:57:59.932Z,16.50
2018-05-02T19:00:27.777Z,16.40
2018-05-02T19:02:55.614Z,16.30
2018-05-02T19:05:23.180Z,16.20
2018-05-02T19:07:51.421Z,16.10
2018-05-02T19:10:18.989Z,16.10
2018-05-02T19:12:47.518Z,15.90
2018-05-02T19:15:15.093Z,15.80
2018-05-02T19:17:49.014Z,15.70
2018-05-02T19:20:22.361Z,15.60
2018-05-02T19:22:50.297Z,15.50
2018-05-02T19:25:23.545Z,15.40
2018-05-02T19:27:51.077Z,15.40
2018-05-02T19:30:18.629Z,15.30
2018-05-02T19:32:51.916Z,15.20
2018-05-02T19:35:19.460Z,15.20
2018-05-02T19:37:47.749Z,15.10
2018-05-02T19:40:21.089Z,15.00
2018-05-02T19:42:54.189Z,15.00
2018-05-02T19:45:21.736Z,14.90
2018-05-02T19:47:49.255Z,14.90
2018-05-02T19:50:16.806Z,14.80
2018-05-02T19:52:46.019Z,14.70
2018-05-02T19:55:13.585Z,14.60
2018-05-02T19:57:41.104Z,14.60
2018-05-02T20:00:14.376Z,14.60
2018-05-02T20:02:47.543Z,14.50
2018-05-02T20:05:15.093Z,14.50
2018-05-02T20:07:42.612Z,14.40
2018-05-02T20:10:15.969Z,14.30
2018-05-02T20:12:49.121Z,14.20
2018-05-02T20:15:17.433Z,14.10
2018-05-02T20:17:44.948Z,14.00
2018-05-02T20:20:12.533Z,14.00
2018-05-02T20:22:40.073Z,13.90
2018-05-02T20:25:08.384Z,13.90
2018-05-02T20:27:35.909Z,13.80
2018-05-02T20:30:04.196Z,13.80
2018-05-02T20:32:31.738Z,13.70
2018-05-02T20:35:00.025Z,13.60
2018-05-02T20:37:28.343Z,13.60
2018-05-02T20:39:55.856Z,13.50
2018-05-02T20:42:24.171Z,13.50
2018-05-02T20:44:51.688Z,13.40
2018-05-02T20:47:20.061Z,13.40
2018-05-02T20:49:47.585Z,13.30
2018-05-02T20:52:15.155Z,13.30
2018-05-02T20:54:42.707Z,13.30
2018-05-02T20:57:10.253Z,13.20
2018-05-02T20:59:37.786Z,13.20
2018-05-02T21:02:05.328Z,13.10
2018-05-02T21:04:32.848Z,13.10
2018-05-02T21:07:00.396Z,13.00
2018-05-02T21:09:27.913Z,13.00
2018-05-02T21:11:56.225Z,12.90
2018-05-02T21:14:23.800Z,12.90
2018-05-02T21:16:51.308Z,12.90
2018-05-02T21:19:19.594Z,12.90
2018-05-02T21:21:47.925Z,12.80
2018-05-02T21:24:15.449Z,12.80
2018-05-02T21:26:42.976Z,12.80
2018-05-02T21:29:12.007Z,12.70
2018-05-02T21:31:40.368Z,12.60
2018-05-02T21:34:08.676Z,12.60
2018-05-02T21:36:36.217Z,12.50
2018-05-02T21:39:03.772Z,12.50
2018-05-02T21:41:32.055Z,12.40
2018-05-02T21:43:59.600Z,12.40
2018-05-02T21:46:27.893Z,12.30
2018-05-02T21:48:55.441Z,12.30
2018-05-02T21:51:23.732Z,12.20
2018-05-02T21:53:51.280Z,12.20
2018-05-02T21:56:18.796Z,12.20
2018-05-02T21:58:46.349Z,12.20
2018-05-02T22:01:13.877Z,12.20
2018-05-02T22:03:41.429Z,12.20
2018-05-02T22:06:08.952Z,12.10
2018-05-02T22:08:36.492Z,12.10
2018-05-02T22:11:04.012Z,12.10
2018-05-02T22:13:31.579Z,12.10
2018-05-02T22:15:59.105Z,12.00
2018-05-02T22:18:27.398Z,12.00
2018-05-02T22:20:55.712Z,12.00
2018-05-02T22:23:23.237Z,11.90
2018-05-02T22:25:51.548Z,11.90
2018-05-02T22:28:19.067Z,11.90
2018-05-02T22:30:46.620Z,11.90
2018-05-02T22:33:14.908Z,11.80
2018-05-02T22:35:43.220Z,11.70
2018-05-02T22:38:10.749Z,11.70
2018-05-02T22:40:38.297Z,11.70
2018-05-02T22:43:06.585Z,11.60
2018-05-02T22:45:34.890Z,11.60
2018-05-02T22:48:02.413Z,11.60
2018-05-02T22:50:30.731Z,11.60
2018-05-02T22:52:58.253Z,11.50
2018-05-02T22:55:26.564Z,11.50
2018-05-02T22:57:54.094Z,11.50
2018-05-02T23:00:22.413Z,11.50
2018-05-02T23:02:49.948Z,11.40
2018-05-02T23:05:17.521Z,11.50
2018-05-02T23:07:45.050Z,11.40
2018-05-02T23:10:13.338Z,11.40
2018-05-02T23:12:40.891Z,11.30
2018-05-02T23:15:09.184Z,11.40
2018-05-02T23:17:36.745Z,11.30
2018-05-02T23:20:04.270Z,11.30
2018-05-02T23:22:32.592Z,11.30
2018-05-02T23:25:00.123Z,11.20
2018-05-02T23:27:28.444Z,11.20
2018-05-02T23:29:56.025Z,11.20
2018-05-02T23:32:23.572Z,11.20
2018-05-02T23:34:51.093Z,11.20
2018-05-02T23:37:18.653Z,11.20
2018-05-02T23:39:46.199Z,11.10
2018-05-02T23:42:14.515Z,11.10
2018-05-02T23:44:42.079Z,11.00
2018-05-02T23:47:09.608Z,11.10
2018-05-02T23:49:37.895Z,11.00
2018-05-02T23:52:05.447Z,11.00
2018-05-02T23:54:32.969Z,11.00
2018-05-02T23:57:00.516Z,11.00
2018-05-02T23:59:28.037Z,11.00
